Time;durP1;ratioP1;P1;durP2;ratioP2;P2;SDS_P1;SDS_P2;PMS_P1;PMS_P2;Temp;Humidity;BMP_temperature;BMP_pressure;BME280_temperature;BME280_humidity;BME280_pressure;Samples;Min_cycle;Max_cycle;Signal;HPM_P1;HPM_P2
2023/07/18 00:02:18;;;;;;;8.75;4.97;;;;;;;;;;6090201;23;20093;-81
2023/07/18 00:04:44;;;;;;;9.43;5.22;;;;;;;;;;6113640;23;20037;-82
2023/07/18 00:07:10;;;;;;;9.13;4.55;;;;;;;;;;6120157;23;20010;-82
2023/07/18 00:09:37;;;;;;;10.02;5.10;;;;;;;;;;6120126;23;20054;-81
2023/07/18 00:12:03;;;;;;;8.95;4.57;;;;;;;;;;6120912;23;20013;-81
2023/07/18 00:14:29;;;;;;;7.32;4.30;;;;;;;;;;6120193;23;20014;-81
2023/07/18 00:16:56;;;;;;;8.98;4.82;;;;;;;;;;6120332;23;20085;-81
2023/07/18 00:19:22;;;;;;;9.00;4.80;;;;;;;;;;6119527;23;20018;-81
2023/07/18 00:21:48;;;;;;;10.50;5.18;;;;;;;;;;6120756;23;20053;-81
2023/07/18 00:24:15;;;;;;;10.98;5.07;;;;;;;;;;6119923;23;20037;-81
2023/07/18 00:26:41;;;;;;;12.13;5.40;;;;;;;;;;6121053;23;20591;-81
2023/07/18 00:29:07;;;;;;;9.25;5.53;;;;;;;;;;6120190;23;20414;-82
2023/07/18 00:31:33;;;;;;;10.05;5.25;;;;;;;;;;6121203;23;20018;-82
2023/07/18 00:33:59;;;;;;;6.95;4.70;;;;;;;;;;6120681;23;20014;-82
2023/07/18 00:42:46;;;;;;;;;;;;;;;;;;;;;
2023/07/18 00:49:29;;;;;;;;;;;;;;;;;;;;;
2023/07/18 01:18:05;;;;;;;9.77;4.90;;;;;;;;;;6098607;22;20072;-81
2023/07/18 01:24:35;;;;;;;;;;;;;;;;;;;;;
2023/07/18 01:47:43;;;;;;;13.88;6.63;;;;;;;;;;6088378;23;20089;-81
2023/07/18 01:50:46;;;;;;;10.77;6.00;;;;;;;;;;6061147;23;20121;-81
2023/07/18 02:00:18;;;;;;;13.60;6.30;;;;;;;;;;6060257;23;20019;-81
2023/07/18 02:03:35;;;;;;;9.07;5.90;;;;;;;;;;6037243;23;20006;-81
2023/07/18 02:24:22;;;;;;;14.38;5.22;;;;;;;;;;6150920;23;20040;-81
2023/07/18 02:27:37;;;;;;;10.07;5.30;;;;;;;;;;6123610;23;20022;-81
2023/07/18 02:37:23;;;;;;;;;;;;;;;;;;;;;
2023/07/18 02:40:01;;;;;;;11.93;5.85;;;;;;;;;;6152680;23;20092;-80
2023/07/18 02:42:51;;;;;;;;;;;;;;;;;;;;;
2023/07/18 02:45:43;;;;;;;9.95;5.15;;;;;;;;;;6152991;23;20088;-81
2023/07/18 02:48:39;;;;;;;;;;;;;;;;;;;;;
2023/07/18 02:54:20;;;;;;;12.85;6.20;;;;;;;;;;6090237;23;20010;-81
2023/07/18 02:57:12;;;;;;;11.25;5.28;;;;;;;;;;6044206;23;20028;-80
2023/07/18 03:19:21;;;;;;;;;;;;;;;;;;;;;
2023/07/18 03:58:52;;;;;;;12.35;6.85;;;;;;;;;;6064657;23;20111;-80
2023/07/18 04:01:23;;;;;;;13.32;5.72;;;;;;;;;;6062349;23;20029;-81
2023/07/18 04:06:54;;;;;;;17.27;6.95;;;;;;;;;;6063228;23;20007;-80
2023/07/18 04:10:07;;;;;;;;;;;;;;;;;;;;;
2023/07/18 04:13:00;;;;;;;15.48;6.80;;;;;;;;;;5975077;24;20455;-81
2023/07/18 04:18:33;;;;;;;14.77;6.93;;;;;;;;;;5977222;24;20076;-80
2023/07/18 04:21:24;;;;;;;11.02;6.68;;;;;;;;;;6003511;23;20030;-80
2023/07/18 04:24:22;;;;;;;11.98;6.35;;;;;;;;;;6064629;23;20313;-81
2023/07/18 04:26:53;;;;;;;10.82;6.32;;;;;;;;;;6033361;23;20023;-81
2023/07/18 04:29:44;;;;;;;11.30;6.97;;;;;;;;;;6034120;23;20110;-80
2023/07/18 04:35:45;;;;;;;17.08;6.32;;;;;;;;;;5982220;23;20031;-80
2023/07/18 04:39:02;;;;;;;12.90;6.32;;;;;;;;;;6121851;23;20028;-80
2023/07/18 04:41:58;;;;;;;11.07;6.07;;;;;;;;;;6095485;23;20342;-81
2023/07/18 04:44:38;;;;;;;;;;;;;;;;;;;;;
2023/07/18 04:47:31;;;;;;;13.40;6.35;;;;;;;;;;6087655;23;20018;-81
2023/07/18 04:53:47;;;;;;;11.63;6.13;;;;;;;;;;6073388;23;20013;-81
2023/07/18 04:56:41;;;;;;;;;;;;;;;;;;;;;
2023/07/18 05:02:54;;;;;;;14.95;7.03;;;;;;;;;;5993076;23;20023;-81
2023/07/18 05:06:01;;;;;;;11.93;6.65;;;;;;;;;;6120816;23;20089;-82
2023/07/18 05:15:08;;;;;;;16.92;6.47;;;;;;;;;;6004237;23;20232;-82
2023/07/18 05:17:53;;;;;;;13.07;6.57;;;;;;;;;;6004699;23;20022;-82
2023/07/18 05:20:46;;;;;;;11.77;6.28;;;;;;;;;;6004187;23;20081;-83
2023/07/18 05:33:52;;;;;;;;;;;;;;;;;;;;;
2023/07/18 05:36:36;;;;;;;12.35;6.63;;;;;;;;;;6065435;23;20090;-82
2023/07/18 05:45:35;;;;;;;15.18;7.47;;;;;;;;;;5977514;24;20048;-81
2023/07/18 05:48:13;;;;;;;13.95;7.35;;;;;;;;;;6026179;23;20039;-79
2023/07/18 05:50:42;;;;;;;12.45;6.57;;;;;;;;;;6033444;23;20012;-80
2023/07/18 05:53:08;;;;;;;13.60;7.32;;;;;;;;;;6120030;23;20025;-79
2023/07/18 05:55:38;;;;;;;12.63;6.20;;;;;;;;;;6125805;23;20020;-79
2023/07/18 05:58:04;;;;;;;9.45;6.63;;;;;;;;;;6126338;23;20049;-79
2023/07/18 06:00:30;;;;;;;11.35;6.57;;;;;;;;;;6126317;23;20020;-79
2023/07/18 06:02:56;;;;;;;15.98;8.90;;;;;;;;;;6152387;23;20013;-79
2023/07/18 06:05:22;;;;;;;14.98;8.27;;;;;;;;;;6152360;23;20006;-79
2023/07/18 06:07:51;;;;;;;14.52;9.10;;;;;;;;;;6126787;23;20101;-80
2023/07/18 06:10:17;;;;;;;16.90;10.40;;;;;;;;;;6125945;23;20024;-80
2023/07/18 06:12:43;;;;;;;13.00;7.78;;;;;;;;;;6152251;23;20013;-80
2023/07/18 06:15:09;;;;;;;12.80;6.28;;;;;;;;;;6125476;23;20045;-80
2023/07/18 06:17:38;;;;;;;11.60;6.38;;;;;;;;;;6125805;23;20025;-79
2023/07/18 06:20:13;;;;;;;14.30;6.78;;;;;;;;;;6151869;23;20357;-79
2023/07/18 06:22:39;;;;;;;10.95;6.75;;;;;;;;;;6153348;23;20040;-80
2023/07/18 06:25:06;;;;;;;16.75;6.35;;;;;;;;;;6125653;23;20023;-80
2023/07/18 06:27:32;;;;;;;17.65;7.13;;;;;;;;;;6152637;23;20425;-80
2023/07/18 06:29:58;;;;;;;10.93;5.65;;;;;;;;;;6125727;23;20354;-79
2023/07/18 06:32:25;;;;;;;11.77;6.22;;;;;;;;;;6126473;23;20112;-79
2023/07/18 06:34:51;;;;;;;11.13;6.55;;;;;;;;;;6126037;23;20565;-80
2023/07/18 06:37:17;;;;;;;11.85;7.18;;;;;;;;;;6126207;23;20009;-80
2023/07/18 06:39:43;;;;;;;11.38;6.47;;;;;;;;;;6151705;23;20076;-80
2023/07/18 06:42:09;;;;;;;11.38;6.53;;;;;;;;;;6126719;23;20418;-79
2023/07/18 06:44:35;;;;;;;10.52;5.45;;;;;;;;;;6125997;23;20016;-80
2023/07/18 06:47:01;;;;;;;9.40;5.60;;;;;;;;;;6152585;23;20531;-80
2023/07/18 06:49:27;;;;;;;12.48;6.30;;;;;;;;;;6126293;23;20041;-80
2023/07/18 06:51:53;;;;;;;11.15;6.13;;;;;;;;;;6126349;23;20017;-80
2023/07/18 06:54:19;;;;;;;13.65;6.10;;;;;;;;;;6152279;23;20011;-80
2023/07/18 06:56:45;;;;;;;9.10;5.38;;;;;;;;;;6139852;23;20013;-80
2023/07/18 06:59:13;;;;;;;11.93;6.47;;;;;;;;;;6151973;23;20027;-80
2023/07/18 07:01:39;;;;;;;13.13;7.05;;;;;;;;;;6125686;23;20052;-80
2023/07/18 07:04:06;;;;;;;16.27;7.90;;;;;;;;;;6125694;23;20005;-80
2023/07/18 07:06:32;;;;;;;15.55;7.13;;;;;;;;;;6125525;23;20108;-80
2023/07/18 07:08:58;;;;;;;13.07;6.43;;;;;;;;;;6126818;23;20009;-79
2023/07/18 07:11:27;;;;;;;12.95;6.65;;;;;;;;;;6151897;23;20013;-79
2023/07/18 07:13:53;;;;;;;15.70;6.45;;;;;;;;;;6125286;23;20017;-79
2023/07/18 07:16:19;;;;;;;14.23;7.03;;;;;;;;;;6125677;23;20379;-80
2023/07/18 07:18:49;;;;;;;13.10;6.10;;;;;;;;;;6151226;23;20005;-80
2023/07/18 07:21:15;;;;;;;15.60;5.70;;;;;;;;;;6152264;23;20013;-80
2023/07/18 07:23:41;;;;;;;17.42;6.78;;;;;;;;;;6151526;23;20705;-80
2023/07/18 07:26:07;;;;;;;12.25;6.35;;;;;;;;;;6126163;23;20017;-80
2023/07/18 07:28:35;;;;;;;16.98;6.10;;;;;;;;;;6151241;23;20008;-80
2023/07/18 07:31:03;;;;;;;14.48;7.03;;;;;;;;;;6151940;23;20097;-79
2023/07/18 07:33:29;;;;;;;15.20;6.07;;;;;;;;;;6125494;23;20064;-80
2023/07/18 07:35:55;;;;;;;14.45;6.53;;;;;;;;;;6126023;23;20031;-80
2023/07/18 07:38:21;;;;;;;10.18;5.43;;;;;;;;;;6125012;23;20052;-80
2023/07/18 07:40:47;;;;;;;12.18;6.10;;;;;;;;;;6151866;23;20029;-80
2023/07/18 07:43:13;;;;;;;11.40;6.53;;;;;;;;;;6125199;23;20032;-80
2023/07/18 07:45:39;;;;;;;14.35;6.80;;;;;;;;;;6125953;23;20577;-80
2023/07/18 07:48:05;;;;;;;16.42;5.43;;;;;;;;;;6125620;23;20002;-80
2023/07/18 07:50:33;;;;;;;13.35;6.00;;;;;;;;;;6125419;23;20028;-80
2023/07/18 07:52:59;;;;;;;11.00;5.97;;;;;;;;;;6125675;23;20378;-80
2023/07/18 07:55:25;;;;;;;16.55;6.18;;;;;;;;;;6125521;23;20389;-80
2023/07/18 07:57:51;;;;;;;10.57;5.88;;;;;;;;;;6125544;23;20045;-79
2023/07/18 08:00:19;;;;;;;13.13;6.25;;;;;;;;;;6124719;23;20469;-80
2023/07/18 08:02:45;;;;;;;17.75;6.50;;;;;;;;;;6149494;23;20012;-80
2023/07/18 08:05:11;;;;;;;13.60;6.38;;;;;;;;;;6154593;23;20023;-80
2023/07/18 08:07:39;;;;;;;13.55;6.60;;;;;;;;;;6154972;23;20001;-81
2023/07/18 08:10:05;;;;;;;10.75;6.18;;;;;;;;;;6155102;23;20017;-80
2023/07/18 08:12:31;;;;;;;10.68;6.47;;;;;;;;;;6154254;23;20013;-81
2023/07/18 08:14:57;;;;;;;12.57;6.38;;;;;;;;;;6181565;23;20015;-81
2023/07/18 08:17:23;;;;;;;15.93;5.72;;;;;;;;;;6154443;23;20008;-80
2023/07/18 08:19:50;;;;;;;10.57;5.28;;;;;;;;;;6155077;23;20163;-80
2023/07/18 08:22:16;;;;;;;8.93;5.38;;;;;;;;;;6154563;23;20384;-80
2023/07/18 08:24:43;;;;;;;12.43;5.43;;;;;;;;;;6181051;23;20013;-80
2023/07/18 08:27:09;;;;;;;13.05;5.63;;;;;;;;;;6154201;23;20552;-81
2023/07/18 08:29:35;;;;;;;14.52;5.82;;;;;;;;;;6181235;23;20044;-80
2023/07/18 08:32:01;;;;;;;12.90;5.97;;;;;;;;;;6154188;23;20504;-80
2023/07/18 08:34:28;;;;;;;11.63;5.68;;;;;;;;;;6154423;23;20099;-80
2023/07/18 08:36:54;;;;;;;10.27;5.85;;;;;;;;;;6155077;23;20085;-80
2023/07/18 08:39:20;;;;;;;13.00;5.97;;;;;;;;;;6154081;23;20067;-79
2023/07/18 08:41:51;;;;;;;13.98;5.80;;;;;;;;;;6154859;23;20214;-80
2023/07/18 08:44:18;;;;;;;9.10;4.72;;;;;;;;;;6154488;23;20104;-81
2023/07/18 08:46:47;;;;;;;10.38;5.68;;;;;;;;;;6154351;23;20117;-80
2023/07/18 08:49:14;;;;;;;10.82;6.25;;;;;;;;;;6154692;23;20008;-80
2023/07/18 08:51:44;;;;;;;11.55;5.95;;;;;;;;;;6154274;23;20064;-81
2023/07/18 08:54:10;;;;;;;9.07;6.18;;;;;;;;;;6154478;23;20017;-80
2023/07/18 08:56:37;;;;;;;15.23;6.20;;;;;;;;;;6154123;23;20027;-81
2023/07/18 08:59:03;;;;;;;13.10;5.70;;;;;;;;;;6154849;23;20020;-81
2023/07/18 09:01:29;;;;;;;15.73;5.80;;;;;;;;;;6155412;23;20080;-80
2023/07/18 09:03:56;;;;;;;11.35;5.55;;;;;;;;;;6183041;23;20056;-80
2023/07/18 09:06:23;;;;;;;15.05;5.85;;;;;;;;;;6155809;23;20041;-80
2023/07/18 09:08:49;;;;;;;10.27;5.10;;;;;;;;;;6156773;23;20009;-80
2023/07/18 09:11:18;;;;;;;10.63;6.15;;;;;;;;;;6155799;23;20021;-80
2023/07/18 09:13:45;;;;;;;15.18;6.28;;;;;;;;;;6156481;23;20024;-80
2023/07/18 09:16:19;;;;;;;12.55;5.35;;;;;;;;;;6156149;23;20013;-80
2023/07/18 09:18:52;;;;;;;11.40;5.72;;;;;;;;;;6183526;23;20020;-80
2023/07/18 09:21:19;;;;;;;12.20;6.00;;;;;;;;;;6156444;23;20013;-80
2023/07/18 09:23:46;;;;;;;13.85;6.03;;;;;;;;;;6183191;23;20084;-80
2023/07/18 09:26:16;;;;;;;13.48;6.03;;;;;;;;;;6155703;23;20444;-80
2023/07/18 09:28:42;;;;;;;10.60;5.60;;;;;;;;;;6156436;23;20009;-80
2023/07/18 09:31:17;;;;;;;12.40;6.03;;;;;;;;;;6183230;23;20009;-80
2023/07/18 09:33:43;;;;;;;10.40;5.20;;;;;;;;;;6156736;23;20017;-80
2023/07/18 09:36:14;;;;;;;11.55;6.00;;;;;;;;;;6183148;23;20111;-80
2023/07/18 09:38:40;;;;;;;10.55;5.85;;;;;;;;;;6155980;23;20016;-80
2023/07/18 09:41:07;;;;;;;13.88;6.20;;;;;;;;;;6156086;23;20028;-80
2023/07/18 09:43:33;;;;;;;12.10;5.95;;;;;;;;;;6155566;23;20097;-80
2023/07/18 09:46:00;;;;;;;13.60;5.93;;;;;;;;;;6156517;23;20009;-80
2023/07/18 09:48:27;;;;;;;11.48;5.93;;;;;;;;;;6155681;23;20032;-80
2023/07/18 09:50:54;;;;;;;14.00;5.63;;;;;;;;;;6156051;23;20314;-80
2023/07/18 09:53:21;;;;;;;10.68;4.80;;;;;;;;;;6155041;23;20012;-80
2023/07/18 09:55:48;;;;;;;12.98;5.40;;;;;;;;;;6182552;23;20028;-80
2023/07/18 09:58:15;;;;;;;10.70;4.78;;;;;;;;;;6155970;23;20441;-80
2023/07/18 10:00:43;;;;;;;16.17;5.45;;;;;;;;;;6156088;23;20025;-80
2023/07/18 10:03:09;;;;;;;10.55;5.57;;;;;;;;;;6181933;23;20027;-80
2023/07/18 10:05:35;;;;;;;10.43;5.47;;;;;;;;;;6155678;23;20017;-80
2023/07/18 10:08:06;;;;;;;8.27;5.10;;;;;;;;;;6155270;23;20370;-80
2023/07/18 10:10:32;;;;;;;9.85;5.32;;;;;;;;;;6155779;23;20032;-81
2023/07/18 10:12:59;;;;;;;12.82;5.45;;;;;;;;;;6155130;23;20013;-80
2023/07/18 10:15:26;;;;;;;13.20;5.78;;;;;;;;;;6155851;23;20017;-81
2023/07/18 10:17:52;;;;;;;13.02;5.85;;;;;;;;;;6155694;23;20675;-80
2023/07/18 10:20:25;;;;;;;13.70;5.18;;;;;;;;;;6155408;23;20410;-80
2023/07/18 10:22:53;;;;;;;13.60;5.65;;;;;;;;;;6155819;23;20061;-80
2023/07/18 10:25:19;;;;;;;16.23;6.53;;;;;;;;;;6154874;23;20104;-80
2023/07/18 10:27:46;;;;;;;12.82;6.30;;;;;;;;;;6155926;23;20431;-80
2023/07/18 10:30:12;;;;;;;11.35;5.32;;;;;;;;;;6155581;23;20020;-80
2023/07/18 10:32:39;;;;;;;20.55;6.18;;;;;;;;;;6156132;23;20005;-81
2023/07/18 10:35:12;;;;;;;14.90;5.85;;;;;;;;;;6155178;23;20021;-81
2023/07/18 10:37:42;;;;;;;13.32;6.15;;;;;;;;;;6156025;23;20013;-81
2023/07/18 10:40:08;;;;;;;13.20;5.63;;;;;;;;;;6181462;23;20028;-81
2023/07/18 10:42:35;;;;;;;15.70;5.72;;;;;;;;;;6155879;23;20012;-81
2023/07/18 10:45:01;;;;;;;11.52;5.47;;;;;;;;;;6154844;23;20016;-81
2023/07/18 10:47:27;;;;;;;14.77;5.60;;;;;;;;;;6155779;23;20330;-80
2023/07/18 10:49:54;;;;;;;12.52;5.38;;;;;;;;;;6154878;23;20504;-80
2023/07/18 10:52:20;;;;;;;10.27;4.78;;;;;;;;;;6155645;23;20020;-80
2023/07/18 10:54:49;;;;;;;16.45;5.30;;;;;;;;;;6154577;23;20059;-80
2023/07/18 10:57:15;;;;;;;10.63;4.95;;;;;;;;;;6155141;23;20036;-81
2023/07/18 10:59:43;;;;;;;9.25;4.95;;;;;;;;;;6181843;23;20080;-81
2023/07/18 11:02:09;;;;;;;9.85;5.32;;;;;;;;;;6155286;23;20091;-81
2023/07/18 11:04:35;;;;;;;14.32;5.63;;;;;;;;;;6155012;23;20421;-81
2023/07/18 11:07:01;;;;;;;13.43;5.00;;;;;;;;;;6155035;23;20029;-81
2023/07/18 11:09:27;;;;;;;14.27;4.85;;;;;;;;;;6155242;23;20015;-81
2023/07/18 11:12:17;;;;;;;;;;;;;;;;;;;;;
2023/07/18 11:15:27;;;;;;;13.30;4.60;;;;;;;;;;6122556;23;20109;-81
2023/07/18 11:18:03;;;;;;;6.68;4.07;;;;;;;;;;6119083;23;20018;-81
2023/07/18 11:20:42;;;;;;;11.93;4.50;;;;;;;;;;6070360;23;20018;-81
2023/07/18 11:27:19;;;;;;;;;;;;;;;;;;;;;
2023/07/18 11:41:39;;;;;;;9.43;4.20;;;;;;;;;;6092079;23;20778;-81
2023/07/18 11:44:08;;;;;;;17.13;4.30;;;;;;;;;;6092702;23;20037;-80
2023/07/18 11:50:00;;;;;;;8.77;4.00;;;;;;;;;;6063507;23;20021;-80
2023/07/18 11:52:41;;;;;;;13.82;5.00;;;;;;;;;;6067195;23;20019;-80
2023/07/18 11:55:22;;;;;;;11.93;4.22;;;;;;;;;;6065648;23;20006;-80
2023/07/18 11:57:59;;;;;;;9.93;4.55;;;;;;;;;;6065877;23;20095;-80
2023/07/18 12:00:28;;;;;;;7.82;3.80;;;;;;;;;;6066541;23;20053;-80
2023/07/18 12:05:51;;;;;;;11.93;4.28;;;;;;;;;;6076681;23;20117;-80
2023/07/18 12:08:19;;;;;;;10.05;4.15;;;;;;;;;;6066985;23;20519;-80
2023/07/18 12:10:45;;;;;;;7.63;3.45;;;;;;;;;;6066356;23;20038;-80
2023/07/18 12:13:11;;;;;;;13.95;4.10;;;;;;;;;;6066532;23;20683;-81
2023/07/18 12:15:37;;;;;;;12.93;4.10;;;;;;;;;;6066986;23;20491;-80
2023/07/18 12:18:03;;;;;;;12.25;4.40;;;;;;;;;;6066294;23;20014;-80
2023/07/18 12:20:35;;;;;;;7.45;3.42;;;;;;;;;;6066895;23;20631;-80
2023/07/18 12:23:03;;;;;;;8.38;3.58;;;;;;;;;;6066801;23;20010;-80
2023/07/18 12:25:31;;;;;;;10.98;4.05;;;;;;;;;;6092219;23;20010;-80
2023/07/18 12:28:00;;;;;;;7.45;3.95;;;;;;;;;;6066884;23;20081;-81
2023/07/18 12:30:30;;;;;;;10.88;4.03;;;;;;;;;;6092489;23;20081;-80
2023/07/18 12:32:57;;;;;;;10.00;4.13;;;;;;;;;;6066812;23;20143;-80
2023/07/18 12:35:26;;;;;;;8.95;4.18;;;;;;;;;;6092561;23;20014;-80
2023/07/18 12:37:57;;;;;;;11.63;3.95;;;;;;;;;;6094615;23;20014;-80
2023/07/18 12:40:44;;;;;;;7.95;3.90;;;;;;;;;;6068470;23;20073;-81
2023/07/18 12:43:40;;;;;;;10.88;3.90;;;;;;;;;;6068188;23;20494;-80
2023/07/18 12:49:41;;;;;;;9.73;3.47;;;;;;;;;;6085816;23;20010;-81
2023/07/18 12:52:46;;;;;;;12.18;4.00;;;;;;;;;;6067391;23;20125;-81
2023/07/18 12:55:28;;;;;;;;;;;;;;;;;;;;;
2023/07/18 12:58:09;;;;;;;8.88;3.78;;;;;;;;;;6094207;23;20122;-81
2023/07/18 13:03:27;;;;;;;10.88;4.60;;;;;;;;;;6093583;23;20053;-80
2023/07/18 13:06:32;;;;;;;9.00;3.70;;;;;;;;;;6094199;23;20536;-80
2023/07/18 13:12:52;;;;;;;9.10;3.88;;;;;;;;;;6044258;23;20014;-81
2023/07/18 13:18:27;;;;;;;;;;;;;;;;;;;;;
2023/07/18 13:21:17;;;;;;;11.00;4.00;;;;;;;;;;6094683;23;20449;-81
2023/07/18 13:23:54;;;;;;;8.77;3.97;;;;;;;;;;6093383;23;20010;-81
2023/07/18 13:26:43;;;;;;;9.27;4.28;;;;;;;;;;6092596;23;20032;-80
2023/07/18 13:29:30;;;;;;;11.70;4.20;;;;;;;;;;6094011;23;20490;-80
2023/07/18 13:32:18;;;;;;;11.55;3.83;;;;;;;;;;6061761;23;20126;-80
2023/07/18 13:45:46;;;;;;;11.18;3.00;;;;;;;;;;6202020;23;20029;-81
2023/07/18 13:57:48;;;;;;;11.13;3.67;;;;;;;;;;6089641;23;20017;-80
2023/07/18 14:04:13;;;;;;;12.27;3.78;;;;;;;;;;6174793;23;20035;-80
2023/07/18 14:06:44;;;;;;;9.85;3.70;;;;;;;;;;6210595;23;20091;-81
2023/07/18 14:09:52;;;;;;;13.82;4.35;;;;;;;;;;6148189;23;20828;-80
2023/07/18 14:12:21;;;;;;;12.77;4.20;;;;;;;;;;6100255;23;20078;-80
2023/07/18 14:33:49;;;;;;;9.23;3.33;;;;;;;;;;6192916;23;20032;-81
2023/07/18 14:36:44;;;;;;;18.88;4.68;;;;;;;;;;6188078;23;20039;-81
2023/07/18 14:39:24;;;;;;;11.02;3.90;;;;;;;;;;6148204;23;20441;-81
2023/07/18 14:41:56;;;;;;;13.32;5.05;;;;;;;;;;6123619;23;20041;-80
2023/07/18 14:44:28;;;;;;;9.07;3.83;;;;;;;;;;6148719;23;20035;-80
2023/07/18 14:47:09;;;;;;;;;;;;;;;;;;;;;
2023/07/18 14:50:22;;;;;;;9.68;4.05;;;;;;;;;;6148799;23;20020;-80
2023/07/18 14:53:08;;;;;;;12.98;3.90;;;;;;;;;;6139332;23;20018;-80
2023/07/18 14:55:43;;;;;;;17.75;3.97;;;;;;;;;;6124003;23;20109;-80
2023/07/18 14:58:26;;;;;;;13.02;4.38;;;;;;;;;;6123287;23;20027;-80
2023/07/18 15:01:02;;;;;;;10.27;3.40;;;;;;;;;;6123774;23;20028;-80
2023/07/18 15:03:46;;;;;;;10.25;3.83;;;;;;;;;;6160754;23;20024;-80
2023/07/18 15:06:37;;;;;;;11.98;4.30;;;;;;;;;;6161749;23;20016;-80
2023/07/18 15:09:06;;;;;;;13.18;4.25;;;;;;;;;;6179692;23;20092;-80
2023/07/18 15:11:47;;;;;;;;;;;;;;;;;;;;;
2023/07/18 15:14:16;;;;;;;12.23;4.57;;;;;;;;;;6182008;23;20080;-80
2023/07/18 15:16:43;;;;;;;11.02;4.35;;;;;;;;;;6179735;23;20019;-80
2023/07/18 15:19:11;;;;;;;14.48;4.05;;;;;;;;;;6179605;23;20024;-80
2023/07/18 15:21:44;;;;;;;11.02;4.35;;;;;;;;;;6181055;23;20095;-81
2023/07/18 15:24:12;;;;;;;10.25;4.05;;;;;;;;;;6180660;23;20005;-80
2023/07/18 15:26:44;;;;;;;9.93;4.07;;;;;;;;;;6181471;23;20084;-80
2023/07/18 15:29:10;;;;;;;12.13;4.55;;;;;;;;;;6182293;23;20357;-80
2023/07/18 15:31:40;;;;;;;9.73;4.47;;;;;;;;;;6180361;23;20013;-80
2023/07/18 15:34:06;;;;;;;11.88;4.10;;;;;;;;;;6180173;23;20108;-80
2023/07/18 15:36:32;;;;;;;12.75;4.38;;;;;;;;;;6182121;23;20095;-80
2023/07/18 15:38:58;;;;;;;7.65;3.95;;;;;;;;;;6179605;23;20675;-80
2023/07/18 15:41:24;;;;;;;11.25;3.78;;;;;;;;;;6181537;23;20004;-80
2023/07/18 15:43:50;;;;;;;10.38;4.50;;;;;;;;;;6181238;23;20076;-80
2023/07/18 15:46:17;;;;;;;16.00;4.68;;;;;;;;;;6180015;23;20025;-80
2023/07/18 15:48:44;;;;;;;11.40;4.07;;;;;;;;;;6181371;23;20586;-80
2023/07/18 15:51:11;;;;;;;11.05;5.03;;;;;;;;;;6181692;23;20016;-80
2023/07/18 15:53:37;;;;;;;7.82;4.43;;;;;;;;;;6179321;23;20461;-80
2023/07/18 15:56:03;;;;;;;10.13;4.80;;;;;;;;;;6180389;23;20009;-80
2023/07/18 15:58:29;;;;;;;11.45;4.65;;;;;;;;;;6179934;23;20046;-80
2023/07/18 16:00:57;;;;;;;9.32;3.75;;;;;;;;;;6179859;23;20013;-80
2023/07/18 16:03:23;;;;;;;8.63;4.10;;;;;;;;;;6179787;23;20091;-80
2023/07/18 16:05:49;;;;;;;14.68;4.78;;;;;;;;;;6181103;23;20005;-80
2023/07/18 16:08:15;;;;;;;10.35;4.07;;;;;;;;;;6179391;23;20013;-80
2023/07/18 16:10:41;;;;;;;11.65;3.75;;;;;;;;;;6180253;23;20384;-80
2023/07/18 16:13:07;;;;;;;10.50;4.40;;;;;;;;;;6180734;23;20133;-80
2023/07/18 16:15:33;;;;;;;9.15;4.15;;;;;;;;;;6179511;23;20009;-80
2023/07/18 16:18:03;;;;;;;11.52;4.18;;;;;;;;;;6179557;23;20110;-80
2023/07/18 16:20:30;;;;;;;11.25;4.00;;;;;;;;;;6179046;23;20013;-80
2023/07/18 16:22:56;;;;;;;12.00;4.03;;;;;;;;;;6180761;23;20088;-80
2023/07/18 16:25:23;;;;;;;9.40;4.30;;;;;;;;;;6180955;23;20008;-79
2023/07/18 16:33:19;;;;;;;12.18;4.35;;;;;;;;;;5099071;27;20363;-80
2023/07/18 16:35:47;;;;;;;;;;;;;;;;;;5082250;28;20032;-81
2023/07/18 16:38:28;;;;;;;13.45;4.30;;;;;;;;;;5056056;28;19912;-81
2023/07/18 16:59:28;;;;;;;9.57;4.35;;;;;;;;;;5095497;28;20038;-81
2023/07/18 17:05:12;;;;;;;11.57;4.63;;;;;;;;;;5067774;28;20471;-80
2023/07/18 17:07:38;;;;;;;10.15;4.57;;;;;;;;;;5042451;28;20041;-80
2023/07/18 17:13:07;;;;;;;10.38;4.38;;;;;;;;;;5032816;23;20040;-81
2023/07/18 17:15:48;;;;;;;13.73;3.60;;;;;;;;;;5003814;28;20085;-80
2023/07/18 17:27:06;;;;;;;12.88;4.50;;;;;;;;;;3850531;26;20049;-81
2023/07/18 17:32:21;;;;;;;14.95;4.32;;;;;;;;;;3332910;26;20048;-80
2023/07/18 17:35:10;;;;;;;15.68;4.57;;;;;;;;;;5055547;28;20059;-80
2023/07/18 17:37:59;;;;;;;11.65;4.60;;;;;;;;;;5084673;23;20049;-80
2023/07/18 17:43:40;;;;;;;11.32;4.15;;;;;;;;;;5053296;28;20569;-80
2023/07/18 17:46:32;;;;;;;14.32;4.57;;;;;;;;;;5044856;28;20032;-80
2023/07/18 17:51:29;;;;;;;;;;;;;;;;;;5051625;28;20080;-79
2023/07/18 17:54:09;;;;;;;13.55;3.95;;;;;;;;;;5033372;28;20363;-80
2023/07/18 17:56:41;;;;;;;10.23;4.47;;;;;;;;;;5041618;28;20115;-80
2023/07/18 17:59:36;;;;;;;11.68;4.45;;;;;;;;;;5027189;28;20029;-80
2023/07/18 18:02:21;;;;;;;16.85;4.95;;;;;;;;;;5041836;28;20086;-79
2023/07/18 18:04:59;;;;;;;11.68;5.15;;;;;;;;;;5029694;28;20058;-79
2023/07/18 18:07:28;;;;;;;16.55;6.05;;;;;;;;;;5035144;28;20607;-80
2023/07/18 18:09:55;;;;;;;17.80;5.57;;;;;;;;;;5032010;28;20091;-80
2023/07/18 18:12:31;;;;;;;11.20;4.85;;;;;;;;;;5033390;28;20033;-79
2023/07/18 18:14:57;;;;;;;12.18;5.13;;;;;;;;;;5062948;28;20072;-80
2023/07/18 18:17:30;;;;;;;12.98;5.43;;;;;;;;;;5044301;28;20041;-79
2023/07/18 18:20:06;;;;;;;10.48;4.60;;;;;;;;;;5028537;28;20056;-79
2023/07/18 18:22:34;;;;;;;18.38;5.40;;;;;;;;;;5034923;28;20056;-80
2023/07/18 18:25:15;;;;;;;20.10;5.07;;;;;;;;;;5037595;28;20045;-79
2023/07/18 18:27:58;;;;;;;15.68;5.80;;;;;;;;;;5043856;28;20037;-79
2023/07/18 18:31:05;;;;;;;15.38;5.75;;;;;;;;;;5036252;28;20037;-80
2023/07/18 18:33:57;;;;;;;7.75;4.72;;;;;;;;;;5028121;28;20048;-80
2023/07/18 18:36:25;;;;;;;15.02;4.43;;;;;;;;;;5028324;28;20046;-80
2023/07/18 18:51:28;;;;;;;;;;;;;;;;;;;;;
2023/07/18 18:54:05;;;;;;;12.02;5.53;;;;;;;;;;4942650;29;20468;-82
2023/07/18 19:30:19;;;;;;;13.15;5.80;;;;;;;;;;4926636;29;20517;-81
2023/07/18 19:32:48;;;;;;;13.05;5.15;;;;;;;;;;4916033;29;20131;-80
2023/07/18 19:35:14;;;;;;;12.10;5.30;;;;;;;;;;4930436;29;20035;-81
2023/07/18 19:37:48;;;;;;;13.95;5.53;;;;;;;;;;4916257;29;20028;-80
2023/07/18 19:40:30;;;;;;;15.25;5.32;;;;;;;;;;4932467;29;20040;-81
2023/07/18 19:43:34;;;;;;;13.15;5.38;;;;;;;;;;4908487;29;20059;-80
2023/07/18 19:46:27;;;;;;;12.07;4.63;;;;;;;;;;4926741;29;20064;-81
2023/07/18 19:48:59;;;;;;;15.82;5.38;;;;;;;;;;4905310;29;20048;-81
2023/07/18 19:51:35;;;;;;;13.50;5.28;;;;;;;;;;4894621;29;20120;-80
2023/07/18 19:54:02;;;;;;;13.60;5.65;;;;;;;;;;4888640;29;20055;-79
2023/07/18 19:56:29;;;;;;;16.00;6.18;;;;;;;;;;4901365;29;20072;-78
2023/07/18 19:58:55;;;;;;;12.15;5.13;;;;;;;;;;4887940;29;20058;-78
2023/07/18 20:01:21;;;;;;;;;;;;;;;;;;4896113;29;20052;-80
2023/07/18 20:03:47;;;;;;;;;;;;;;;;;;4894441;29;20354;-80
2023/07/18 20:06:13;;;;;;;19.35;5.78;;;;;;;;;;4899434;29;19915;-80
2023/07/18 20:08:39;;;;;;;16.52;5.45;;;;;;;;;;4897985;29;20064;-81
2023/07/18 20:11:05;;;;;;;13.30;6.03;;;;;;;;;;4894159;29;20031;-80
2023/07/18 20:13:31;;;;;;;17.70;5.20;;;;;;;;;;4891310;29;20567;-80
2023/07/18 20:15:57;;;;;;;9.88;4.65;;;;;;;;;;4891191;29;20033;-80
2023/07/18 20:18:23;;;;;;;11.43;5.40;;;;;;;;;;4892758;29;20036;-80
2023/07/18 20:20:49;;;;;;;9.38;4.80;;;;;;;;;;4893851;29;20104;-80
2023/07/18 20:23:15;;;;;;;15.30;5.35;;;;;;;;;;4893722;29;20036;-80
2023/07/18 20:25:42;;;;;;;14.75;4.45;;;;;;;;;;4893685;29;20369;-81
2023/07/18 20:28:08;;;;;;;15.82;5.60;;;;;;;;;;4895668;29;20032;-80
2023/07/18 20:30:34;;;;;;;11.98;4.50;;;;;;;;;;4894486;29;20104;-81
2023/07/18 20:33:01;;;;;;;;;;;;;;;;;;4896833;29;20491;-80
2023/07/18 20:35:30;;;;;;;14.77;6.00;;;;;;;;;;4884406;29;20436;-80
2023/07/18 20:37:56;;;;;;;11.75;5.18;;;;;;;;;;4892648;29;20120;-81
2023/07/18 20:40:22;;;;;;;12.10;4.85;;;;;;;;;;4884078;29;20036;-80
2023/07/18 20:42:50;;;;;;;13.63;5.30;;;;;;;;;;4893326;29;20028;-81
2023/07/18 20:45:18;;;;;;;14.35;5.13;;;;;;;;;;4887749;29;20111;-80
2023/07/18 20:47:44;;;;;;;10.90;4.47;;;;;;;;;;4897603;29;20124;-81
2023/07/18 20:50:12;;;;;;;20.50;5.88;;;;;;;;;;4905105;29;20055;-81
2023/07/18 20:52:40;;;;;;;14.07;5.03;;;;;;;;;;4909178;29;20028;-80
2023/07/18 20:55:07;;;;;;;8.88;4.75;;;;;;;;;;4892997;29;20147;-80
2023/07/18 20:57:33;;;;;;;13.05;5.03;;;;;;;;;;4910941;29;20071;-80
2023/07/18 20:59:59;;;;;;;12.60;5.35;;;;;;;;;;4913315;29;20435;-79
2023/07/18 21:02:25;;;;;;;14.50;5.63;;;;;;;;;;4912784;29;20047;-80
2023/07/18 21:04:51;;;;;;;14.68;6.50;;;;;;;;;;4912886;29;20047;-80
2023/07/18 21:07:17;;;;;;;18.95;6.00;;;;;;;;;;4912874;29;20116;-80
2023/07/18 21:09:43;;;;;;;14.45;5.80;;;;;;;;;;4908020;29;20127;-80
2023/07/18 21:12:09;;;;;;;15.85;5.63;;;;;;;;;;4912464;29;20032;-80
2023/07/18 21:14:35;;;;;;;10.90;5.22;;;;;;;;;;4913045;29;20044;-80
2023/07/18 21:17:01;;;;;;;17.40;6.93;;;;;;;;;;4893792;29;20663;-80
2023/07/18 21:19:28;;;;;;;13.68;5.85;;;;;;;;;;4912852;29;20050;-80
2023/07/18 21:21:54;;;;;;;11.52;5.68;;;;;;;;;;4907826;29;20099;-81
2023/07/18 21:24:20;;;;;;;10.05;5.32;;;;;;;;;;4912919;29;20051;-79
2023/07/18 21:26:46;;;;;;;14.00;5.80;;;;;;;;;;4912422;29;20043;-80